createdAt,value
2023-08-14T00:01:59.201Z,72.04
2023-08-14T00:04:25.758Z,71.26
2023-08-14T00:06:52.313Z,70.98
2023-08-14T00:09:18.952Z,71.24
2023-08-14T00:11:45.493Z,71.39
2023-08-14T00:14:12.005Z,71.24
2023-08-14T00:16:38.624Z,72.00
2023-08-14T00:19:05.244Z,72.16
2023-08-14T00:21:31.823Z,72.70
2023-08-14T00:23:58.334Z,71.80
2023-08-14T00:26:24.844Z,70.91
2023-08-14T00:28:51.356Z,70.92
2023-08-14T00:31:18.274Z,71.83
2023-08-14T00:33:45.071Z,72.33
2023-08-14T00:36:11.856Z,72.52
2023-08-14T00:38:38.388Z,72.61
2023-08-14T00:41:05.037Z,73.04
2023-08-14T00:43:31.666Z,73.33
2023-08-14T00:45:58.617Z,73.48
2023-08-14T00:48:26.312Z,73.53
2023-08-14T00:50:54.584Z,73.62
2023-08-14T00:53:21.314Z,73.73
2023-08-14T00:55:48.259Z,74.11
2023-08-14T00:58:15.015Z,74.58
2023-08-14T01:00:43.302Z,74.49
2023-08-14T01:03:10.025Z,74.41
2023-08-14T01:05:37.254Z,74.35
2023-08-14T01:08:03.990Z,74.58
2023-08-14T01:10:47.130Z,75.18
2023-08-14T01:13:32.113Z,76.35
2023-08-14T01:16:00.153Z,76.67
2023-08-14T01:18:27.873Z,76.46
2023-08-14T01:21:05.070Z,76.66
2023-08-14T01:23:43.414Z,76.54
2023-08-14T01:26:10.180Z,77.15
2023-08-14T01:28:36.880Z,77.28
2023-08-14T01:31:03.486Z,76.82
2023-08-14T01:33:30.076Z,77.30
2023-08-14T01:36:04.639Z,76.89
2023-08-14T01:38:40.913Z,76.74
2023-08-14T01:41:15.069Z,77.46
2023-08-14T01:43:46.267Z,77.68
2023-08-14T01:46:13.634Z,77.19
2023-08-14T01:48:41.268Z,76.69
2023-08-14T01:51:08.448Z,77.10
2023-08-14T01:53:36.662Z,78.07
2023-08-14T01:56:03.467Z,78.03
2023-08-14T01:58:31.152Z,78.44
2023-08-14T02:00:57.665Z,78.70
2023-08-14T02:03:24.397Z,78.56
2023-08-14T02:05:51.027Z,78.78
2023-08-14T02:08:17.573Z,78.79
2023-08-14T02:10:44.076Z,80.04
2023-08-14T02:13:10.605Z,79.95
2023-08-14T02:15:37.123Z,81.58
2023-08-14T02:18:04.081Z,81.87
2023-08-14T02:20:30.769Z,81.48
2023-08-14T02:22:57.290Z,81.63
2023-08-14T02:25:23.767Z,81.78
2023-08-14T02:27:50.417Z,81.67
2023-08-14T02:30:17.020Z,82.42
2023-08-14T02:32:43.572Z,82.42
2023-08-14T02:35:10.147Z,81.93
2023-08-14T02:37:36.698Z,82.69
2023-08-14T02:40:04.807Z,83.16
2023-08-14T02:42:31.416Z,82.81
2023-08-14T02:44:58.009Z,82.97
2023-08-14T02:47:24.548Z,83.50
2023-08-14T02:49:51.070Z,83.68
2023-08-14T02:52:17.864Z,84.72
2023-08-14T02:54:44.605Z,85.09
2023-08-14T02:57:11.183Z,84.78
2023-08-14T02:59:37.754Z,84.99
2023-08-14T03:02:04.364Z,85.27
2023-08-14T03:04:31.233Z,86.15
2023-08-14T03:06:57.925Z,85.52
2023-08-14T03:09:24.420Z,85.27
2023-08-14T03:11:50.987Z,85.79
2023-08-14T03:14:17.486Z,85.74
2023-08-14T03:16:44.096Z,86.00
2023-08-14T03:19:10.697Z,87.22
2023-08-14T03:21:38.405Z,87.19
2023-08-14T03:24:06.878Z,88.23
2023-08-14T03:26:33.941Z,88.52
2023-08-14T03:29:00.555Z,88.60
2023-08-14T03:31:27.363Z,87.90
2023-08-14T03:33:53.952Z,88.30
2023-08-14T03:36:20.608Z,88.74
2023-08-14T03:38:47.281Z,88.52
2023-08-14T03:41:14.279Z,88.68
2023-08-14T03:43:40.864Z,88.54
2023-08-14T03:46:07.588Z,88.61
2023-08-14T03:48:35.829Z,89.03
2023-08-14T03:51:02.407Z,89.21
2023-08-14T03:53:29.065Z,89.29
2023-08-14T03:55:55.826Z,89.81
2023-08-14T03:58:22.558Z,89.71
2023-08-14T04:00:49.056Z,89.09
2023-08-14T04:03:16.011Z,89.36
2023-08-14T04:05:43.475Z,90.07
2023-08-14T04:08:10.381Z,90.24
2023-08-14T04:10:38.399Z,90.25
2023-08-14T04:13:05.314Z,89.83
2023-08-14T04:15:32.860Z,90.16
2023-08-14T04:17:59.613Z,89.38
2023-08-14T04:20:26.172Z,89.63
2023-08-14T04:22:52.750Z,90.02
2023-08-14T04:25:21.172Z,90.17
2023-08-14T04:27:47.753Z,90.20
2023-08-14T04:30:14.824Z,89.50
2023-08-14T04:32:42.209Z,89.46
2023-08-14T04:35:09.668Z,88.92
2023-08-14T04:37:36.726Z,88.61
2023-08-14T04:40:05.872Z,87.95
2023-08-14T04:42:33.884Z,87.58
2023-08-14T04:45:00.671Z,86.97
2023-08-14T04:47:27.336Z,87.20
2023-08-14T04:49:54.055Z,86.48
2023-08-14T04:52:21.818Z,86.20
2023-08-14T04:54:48.454Z,85.91
2023-08-14T04:57:14.991Z,85.55
2023-08-14T04:59:41.530Z,85.03
2023-08-14T05:02:08.223Z,84.42
2023-08-14T05:04:35.378Z,84.07
2023-08-14T05:07:02.533Z,83.27
2023-08-14T05:09:29.135Z,82.81
2023-08-14T05:11:55.725Z,82.16
2023-08-14T05:14:22.360Z,81.60
2023-08-14T05:16:49.030Z,80.93
2023-08-14T05:19:15.682Z,79.75
2023-08-14T05:21:42.949Z,80.48
2023-08-14T05:24:10.111Z,79.63
2023-08-14T05:26:36.912Z,79.05
2023-08-14T05:29:03.705Z,78.49
2023-08-14T05:31:30.341Z,77.83
2023-08-14T05:33:57.252Z,77.85
2023-08-14T05:36:23.787Z,76.72
2023-08-14T05:38:50.743Z,75.31
2023-08-14T05:41:18.082Z,75.00
2023-08-14T05:43:44.720Z,73.84
2023-08-14T05:46:11.410Z,72.88
2023-08-14T05:48:38.001Z,72.00
2023-08-14T05:51:04.599Z,72.68
2023-08-14T05:53:31.895Z,72.35
2023-08-14T05:55:58.430Z,72.66
2023-08-14T05:58:24.989Z,71.98
2023-08-14T06:00:51.902Z,69.77
2023-08-14T06:03:25.936Z,69.98
2023-08-14T06:05:56.187Z,68.73
2023-08-14T06:08:22.791Z,67.50
2023-08-14T06:10:49.342Z,67.23
2023-08-14T06:13:16.017Z,62.94
2023-08-14T06:15:42.738Z,57.89
2023-08-14T06:18:09.320Z,53.82
2023-08-14T06:20:37.015Z,52.74
2023-08-14T06:23:03.660Z,49.06
2023-08-14T06:25:32.563Z,46.67
2023-08-14T06:27:59.083Z,45.16
2023-08-14T06:30:26.566Z,43.03
2023-08-14T06:32:53.234Z,42.16
2023-08-14T06:35:19.849Z,44.42
2023-08-14T06:37:46.512Z,43.30
2023-08-14T06:40:13.440Z,46.92
2023-08-14T06:42:40.010Z,45.31
2023-08-14T06:45:07.202Z,43.86
2023-08-14T06:47:33.825Z,42.44
2023-08-14T06:50:00.437Z,44.29
2023-08-14T06:52:26.954Z,41.73
2023-08-14T06:54:53.764Z,41.39
2023-08-14T06:57:20.379Z,39.66
2023-08-14T06:59:46.990Z,41.39
2023-08-14T07:02:14.053Z,41.13
2023-08-14T07:04:40.775Z,42.04
2023-08-14T07:07:07.328Z,40.77
2023-08-14T07:09:35.407Z,39.53
2023-08-14T07:12:01.990Z,37.82
2023-08-14T07:14:31.171Z,40.38
2023-08-14T07:16:58.034Z,41.21
2023-08-14T07:19:24.607Z,38.92
2023-08-14T07:21:51.097Z,37.88
2023-08-14T07:24:17.659Z,36.17
2023-08-14T07:26:44.452Z,33.75
2023-08-14T07:29:11.080Z,35.04
2023-08-14T07:31:37.842Z,33.23
2023-08-14T07:34:04.582Z,32.33
2023-08-14T07:36:31.884Z,34.18
2023-08-14T07:38:58.396Z,39.99
2023-08-14T07:41:24.959Z,42.08
2023-08-14T07:43:51.511Z,40.35
2023-08-14T07:46:19.533Z,38.68
2023-08-14T07:48:46.230Z,36.56
2023-08-14T07:51:12.860Z,35.45
2023-08-14T07:53:40.327Z,35.03
2023-08-14T07:56:06.857Z,36.93
2023-08-14T07:58:33.447Z,36.77
2023-08-14T08:01:00.107Z,40.56
2023-08-14T08:03:26.672Z,40.69
2023-08-14T08:05:53.475Z,39.59
2023-08-14T08:08:20.017Z,37.64
2023-08-14T08:10:46.652Z,38.05
2023-08-14T08:13:13.385Z,38.13
2023-08-14T08:15:40.006Z,39.96
2023-08-14T08:18:06.615Z,41.44
2023-08-14T08:20:33.304Z,42.67
2023-08-14T08:22:59.834Z,42.40
2023-08-14T08:25:26.542Z,44.28
2023-08-14T08:27:53.088Z,46.01
2023-08-14T08:30:19.928Z,47.81
2023-08-14T08:32:46.731Z,46.49
2023-08-14T08:35:14.219Z,44.75
2023-08-14T08:37:42.574Z,45.67
2023-08-14T08:40:09.737Z,44.30
2023-08-14T08:42:37.502Z,43.66
2023-08-14T08:45:05.378Z,45.94
2023-08-14T08:47:36.163Z,44.46
2023-08-14T08:50:04.561Z,43.41
2023-08-14T08:52:35.380Z,44.00
2023-08-14T08:55:02.953Z,44.64
2023-08-14T08:57:30.115Z,44.79
2023-08-14T08:59:59.014Z,46.22
2023-08-14T09:02:25.907Z,46.34
2023-08-14T09:04:52.571Z,48.14
2023-08-14T09:07:19.288Z,48.73
2023-08-14T09:09:46.154Z,49.12
2023-08-14T09:12:13.252Z,48.09
2023-08-14T09:14:47.083Z,47.50
2023-08-14T09:17:14.647Z,47.34
2023-08-14T09:19:43.139Z,47.89
2023-08-14T09:22:09.759Z,47.49
2023-08-14T09:24:40.604Z,48.35
2023-08-14T09:27:07.372Z,47.52
2023-08-14T09:29:35.315Z,47.09
2023-08-14T09:32:02.664Z,49.14
2023-08-14T09:34:31.413Z,48.74
2023-08-14T09:36:58.814Z,49.77
2023-08-14T09:39:25.510Z,50.05
2023-08-14T09:41:52.119Z,49.28
2023-08-14T09:44:22.513Z,50.05
2023-08-14T09:46:50.466Z,50.84
2023-08-14T09:49:17.895Z,52.59
2023-08-14T09:51:54.784Z,53.39
2023-08-14T09:54:32.569Z,52.29
2023-08-14T09:57:00.838Z,52.66
2023-08-14T09:59:28.165Z,54.91
2023-08-14T10:01:55.801Z,54.25
2023-08-14T10:04:23.590Z,54.57
2023-08-14T10:06:52.091Z,53.09
2023-08-14T10:09:22.290Z,52.62
2023-08-14T10:11:49.438Z,53.60
2023-08-14T10:14:16.643Z,52.85
2023-08-14T10:16:43.843Z,52.98
2023-08-14T10:19:14.361Z,53.03
2023-08-14T10:21:41.913Z,52.83
2023-08-14T10:24:08.998Z,53.20
2023-08-14T10:26:37.409Z,52.95
2023-08-14T10:29:04.847Z,52.90
2023-08-14T10:31:31.890Z,52.61
2023-08-14T10:33:59.345Z,52.58
2023-08-14T10:36:29.450Z,51.29
2023-08-14T10:39:02.895Z,50.96
2023-08-14T10:41:33.926Z,50.94
2023-08-14T10:44:08.351Z,51.51
2023-08-14T10:46:42.846Z,50.78
2023-08-14T10:49:12.795Z,51.77
2023-08-14T10:51:42.099Z,49.65
2023-08-14T10:54:17.732Z,49.39
2023-08-14T10:56:47.225Z,48.27
2023-08-14T10:59:24.771Z,47.41
2023-08-14T11:01:53.649Z,47.48
2023-08-14T11:04:20.255Z,47.22
2023-08-14T11:07:03.075Z,48.61
2023-08-14T11:09:33.530Z,47.40
2023-08-14T11:12:09.110Z,47.44
2023-08-14T11:14:42.192Z,46.75
2023-08-14T11:17:10.044Z,47.11
2023-08-14T11:19:38.552Z,46.98
2023-08-14T11:22:05.421Z,46.91
2023-08-14T11:24:33.561Z,45.95
2023-08-14T11:27:01.693Z,45.68
2023-08-14T11:29:30.865Z,46.53
2023-08-14T11:32:00.180Z,46.14
2023-08-14T11:34:26.764Z,46.65
2023-08-14T11:39:32.637Z,45.80
2023-08-14T11:41:59.206Z,45.80
2023-08-14T11:44:26.032Z,45.26
2023-08-14T11:46:53.756Z,45.75
2023-08-14T11:49:20.674Z,45.68
2023-08-14T11:51:47.667Z,46.10
2023-08-14T11:54:14.589Z,47.01
2023-08-14T11:56:41.549Z,46.01
2023-08-14T11:59:08.394Z,46.15
2023-08-14T12:01:37.655Z,46.30
2023-08-14T12:04:05.951Z,45.81
2023-08-14T12:06:33.311Z,45.01
2023-08-14T12:09:03.744Z,44.93
2023-08-14T12:11:30.407Z,45.16
2023-08-14T12:13:56.966Z,45.18
2023-08-14T12:16:26.865Z,46.17
2023-08-14T12:18:55.093Z,46.48
2023-08-14T12:21:21.698Z,46.18
2023-08-14T12:23:50.078Z,45.73
2023-08-14T12:26:16.748Z,46.10
2023-08-14T12:28:44.237Z,45.86
2023-08-14T12:31:11.672Z,45.87
2023-08-14T12:33:45.182Z,46.09
2023-08-14T12:36:13.827Z,45.61
2023-08-14T12:38:40.386Z,45.36
2023-08-14T12:41:06.944Z,45.63
2023-08-14T12:43:40.387Z,45.71
2023-08-14T12:46:10.278Z,44.52
2023-08-14T12:48:37.278Z,43.74
2023-08-14T12:51:04.844Z,44.08
2023-08-14T12:53:31.510Z,44.06
2023-08-14T12:56:03.634Z,44.45
2023-08-14T12:58:31.285Z,44.61
2023-08-14T13:01:04.496Z,44.82
2023-08-14T13:06:01.820Z,44.47
2023-08-14T13:08:28.365Z,44.10
2023-08-14T13:10:54.895Z,44.70
2023-08-14T13:13:24.976Z,44.15
2023-08-14T13:15:51.892Z,44.50
2023-08-14T13:18:18.673Z,45.16
2023-08-14T13:20:45.230Z,43.81
2023-08-14T13:23:11.748Z,43.26
2023-08-14T13:25:42.379Z,42.14
2023-08-14T13:28:09.598Z,42.60
2023-08-14T13:30:36.821Z,42.48
2023-08-14T13:33:03.701Z,42.10
2023-08-14T13:35:30.210Z,41.73
2023-08-14T13:37:56.749Z,41.28
2023-08-14T13:40:23.609Z,41.26
2023-08-14T13:42:50.153Z,42.06
2023-08-14T13:45:19.009Z,42.66
2023-08-14T13:47:54.177Z,42.21
2023-08-14T13:50:33.061Z,43.06
2023-08-14T13:53:03.772Z,42.20
2023-08-14T13:55:35.168Z,42.04
2023-08-14T13:58:02.380Z,42.69
2023-08-14T14:00:30.798Z,43.33
2023-08-14T14:02:59.423Z,42.93
2023-08-14T14:05:26.844Z,42.42
2023-08-14T14:07:55.880Z,42.91
2023-08-14T14:10:24.992Z,42.52
2023-08-14T14:15:21.303Z,43.20
2023-08-14T14:17:48.071Z,43.69
2023-08-14T14:20:16.705Z,43.91
2023-08-14T14:22:43.462Z,43.98
2023-08-14T14:25:10.100Z,43.99
2023-08-14T14:27:36.680Z,44.01
2023-08-14T14:30:03.329Z,43.80
2023-08-14T14:32:29.919Z,43.18
2023-08-14T14:34:56.453Z,43.41
2023-08-14T14:37:23.035Z,43.46
2023-08-14T14:39:49.688Z,44.09
2023-08-14T14:42:16.366Z,43.68
2023-08-14T14:44:44.182Z,42.52
2023-08-14T14:47:10.651Z,42.33
2023-08-14T14:49:37.135Z,42.64
2023-08-14T14:52:04.190Z,42.06
2023-08-14T14:54:30.720Z,41.08
2023-08-14T14:56:57.270Z,41.14
2023-08-14T14:59:23.907Z,40.37
2023-08-14T15:01:50.491Z,40.77
2023-08-14T15:04:16.997Z,40.47
2023-08-14T15:06:43.516Z,41.27
2023-08-14T15:09:10.073Z,41.43
2023-08-14T15:11:36.741Z,41.15
2023-08-14T15:14:03.395Z,41.46
2023-08-14T15:16:31.508Z,42.06
2023-08-14T15:18:59.925Z,41.00
2023-08-14T15:21:26.559Z,41.33
2023-08-14T15:23:53.134Z,41.35
2023-08-14T15:26:20.275Z,41.68
2023-08-14T15:28:47.089Z,42.02
2023-08-14T15:31:13.666Z,41.81
2023-08-14T15:33:40.227Z,41.93
2023-08-14T15:36:06.756Z,41.59
2023-08-14T15:38:33.290Z,42.16
2023-08-14T15:40:59.875Z,42.18
2023-08-14T15:43:26.904Z,41.57
2023-08-14T15:46:04.514Z,41.64
2023-08-14T15:48:31.144Z,42.04
2023-08-14T15:50:57.677Z,42.24
2023-08-14T15:53:24.232Z,42.26
2023-08-14T15:55:50.803Z,42.29
2023-08-14T15:58:17.348Z,42.44
2023-08-14T16:00:45.127Z,42.64
2023-08-14T16:03:12.193Z,43.22
2023-08-14T16:05:39.035Z,42.80
2023-08-14T16:08:06.459Z,42.62
2023-08-14T16:10:32.989Z,42.89
2023-08-14T16:12:59.605Z,43.42
2023-08-14T16:15:26.127Z,43.53
2023-08-14T16:17:52.840Z,43.35
2023-08-14T16:20:19.429Z,43.44
2023-08-14T16:22:45.949Z,43.43
2023-08-14T16:25:12.752Z,43.97
2023-08-14T16:27:39.379Z,44.25
2023-08-14T16:30:06.629Z,44.18
2023-08-14T16:32:33.219Z,43.88
2023-08-14T16:34:59.859Z,43.95
2023-08-14T16:37:26.556Z,43.58
2023-08-14T16:39:53.063Z,44.21
2023-08-14T16:42:19.638Z,45.01
2023-08-14T16:44:46.213Z,44.79
2023-08-14T16:47:13.769Z,45.25
2023-08-14T16:49:40.357Z,44.56
2023-08-14T16:52:06.990Z,44.42
2023-08-14T16:54:33.533Z,44.68
2023-08-14T16:57:00.041Z,44.71
2023-08-14T16:59:26.714Z,46.04
2023-08-14T17:01:53.312Z,45.91
2023-08-14T17:04:19.880Z,45.68
2023-08-14T17:06:46.444Z,45.78
2023-08-14T17:09:14.904Z,45.28
2023-08-14T17:11:41.955Z,45.08
2023-08-14T17:14:08.621Z,44.87
2023-08-14T17:16:36.666Z,45.05
2023-08-14T17:19:03.514Z,44.94
2023-08-14T17:21:30.148Z,44.76
2023-08-14T17:23:56.788Z,45.16
2023-08-14T17:26:23.487Z,45.04
2023-08-14T17:28:50.137Z,44.96
2023-08-14T17:31:16.810Z,44.65
2023-08-14T17:33:43.391Z,44.54
2023-08-14T17:36:10.529Z,44.67
2023-08-14T17:38:37.291Z,45.52
2023-08-14T17:41:04.386Z,44.64
2023-08-14T17:43:31.050Z,44.79
2023-08-14T17:45:58.713Z,45.04
2023-08-14T17:48:25.534Z,45.67
2023-08-14T17:50:53.094Z,45.06
2023-08-14T17:53:20.196Z,45.97
2023-08-14T17:55:46.801Z,46.31
2023-08-14T17:58:13.493Z,47.23
2023-08-14T18:00:46.978Z,48.08
2023-08-14T18:03:13.941Z,48.71
2023-08-14T18:05:40.556Z,49.07
2023-08-14T18:08:07.170Z,49.57
2023-08-14T18:10:33.650Z,49.60
2023-08-14T18:13:00.228Z,49.67
2023-08-14T18:15:26.731Z,49.70
2023-08-14T18:17:53.401Z,50.30
2023-08-14T18:20:20.073Z,50.42
2023-08-14T18:22:47.831Z,50.69
2023-08-14T18:25:14.445Z,51.47
2023-08-14T18:27:41.052Z,51.55
2023-08-14T18:30:09.913Z,52.01
2023-08-14T18:32:38.389Z,52.27
2023-08-14T18:35:05.345Z,52.58
2023-08-14T18:37:31.876Z,52.73
2023-08-14T18:39:58.577Z,53.06
2023-08-14T18:42:25.444Z,53.50
2023-08-14T18:44:52.006Z,53.48
2023-08-14T18:47:18.876Z,53.63
2023-08-14T18:49:46.892Z,53.73
2023-08-14T18:52:13.899Z,54.19
2023-08-14T18:54:42.826Z,54.29
2023-08-14T18:57:11.698Z,54.81
2023-08-14T18:59:45.285Z,54.97
2023-08-14T19:02:12.028Z,55.14
2023-08-14T19:04:43.151Z,55.23
2023-08-14T19:07:10.449Z,55.46
2023-08-14T19:09:37.013Z,55.82
2023-08-14T19:12:05.343Z,56.27
2023-08-14T19:14:31.987Z,56.83
2023-08-14T19:16:58.670Z,56.90
2023-08-14T19:19:25.216Z,57.67
2023-08-14T19:21:51.808Z,57.41
2023-08-14T19:24:18.585Z,57.44
2023-08-14T19:26:46.368Z,57.31
2023-08-14T19:29:13.079Z,57.80
2023-08-14T19:31:39.661Z,57.90
2023-08-14T19:34:06.287Z,57.95
2023-08-14T19:36:35.200Z,58.37
2023-08-14T19:39:02.108Z,58.44
2023-08-14T19:41:28.747Z,58.80
2023-08-14T19:43:56.145Z,58.60
2023-08-14T19:46:22.803Z,59.15
2023-08-14T19:48:49.442Z,59.72
2023-08-14T19:51:16.060Z,59.76
2023-08-14T19:53:42.768Z,59.96
2023-08-14T19:56:09.411Z,60.32
2023-08-14T19:58:36.595Z,60.98
2023-08-14T20:01:03.302Z,60.64
2023-08-14T20:03:30.571Z,60.65
2023-08-14T20:05:57.325Z,62.04
2023-08-14T20:08:24.620Z,62.49
2023-08-14T20:10:51.576Z,62.13
2023-08-14T20:13:18.558Z,61.89
2023-08-14T20:15:48.138Z,61.70
2023-08-14T20:18:15.498Z,61.88
2023-08-14T20:20:43.505Z,61.88
2023-08-14T20:23:10.851Z,61.65
2023-08-14T20:25:38.196Z,61.99
2023-08-14T20:28:05.674Z,62.51
2023-08-14T20:30:33.494Z,62.87
2023-08-14T20:33:00.132Z,62.76
2023-08-14T20:35:26.728Z,62.71
2023-08-14T20:37:53.251Z,62.96
2023-08-14T20:40:19.785Z,63.20
2023-08-14T20:42:46.650Z,63.13
2023-08-14T20:45:15.986Z,62.61
2023-08-14T20:47:42.521Z,63.11
2023-08-14T20:50:09.582Z,63.72
2023-08-14T20:52:36.621Z,63.67
2023-08-14T20:55:03.268Z,64.14
2023-08-14T20:57:30.169Z,64.90
2023-08-14T20:59:56.827Z,64.81
2023-08-14T21:02:23.466Z,64.60
2023-08-14T21:04:50.071Z,64.87
2023-08-14T21:07:16.695Z,64.74
2023-08-14T21:09:43.243Z,65.00
2023-08-14T21:12:09.956Z,64.97
2023-08-14T21:14:36.568Z,65.12
2023-08-14T21:17:03.091Z,65.54
2023-08-14T21:19:29.569Z,66.00
2023-08-14T21:21:56.061Z,65.43
2023-08-14T21:24:22.556Z,65.55
2023-08-14T21:26:49.095Z,66.07
2023-08-14T21:29:15.622Z,66.49
2023-08-14T21:31:42.231Z,66.56
2023-08-14T21:34:13.614Z,66.83
2023-08-14T21:36:40.155Z,66.84
2023-08-14T21:39:06.743Z,67.08
2023-08-14T21:41:33.303Z,66.84
2023-08-14T21:43:59.852Z,67.11
2023-08-14T21:46:29.915Z,66.88
2023-08-14T21:48:56.860Z,65.89
2023-08-14T21:51:24.172Z,66.53
2023-08-14T21:53:50.794Z,66.79
2023-08-14T21:56:17.447Z,66.60
2023-08-14T21:58:44.091Z,66.81
2023-08-14T22:01:10.649Z,66.54
2023-08-14T22:03:37.251Z,66.96
2023-08-14T22:06:04.388Z,66.23
2023-08-14T22:08:31.380Z,66.66
2023-08-14T22:10:58.511Z,67.09
2023-08-14T22:13:25.322Z,67.09
2023-08-14T22:15:51.943Z,67.18
2023-08-14T22:18:19.134Z,67.20
2023-08-14T22:20:46.287Z,67.62
2023-08-14T22:23:14.032Z,66.53
2023-08-14T22:25:42.303Z,65.92
2023-08-14T22:28:08.951Z,66.46
2023-08-14T22:30:36.367Z,66.29
2023-08-14T22:33:04.981Z,65.59
2023-08-14T22:35:31.817Z,65.54
2023-08-14T22:37:58.390Z,65.51
2023-08-14T22:40:26.020Z,65.95
2023-08-14T22:42:52.566Z,65.92
2023-08-14T22:45:19.193Z,65.90
2023-08-14T22:47:45.766Z,66.21
2023-08-14T22:50:12.522Z,65.99
2023-08-14T22:52:39.098Z,65.67
2023-08-14T22:55:05.898Z,65.68
2023-08-14T22:57:32.405Z,65.40
2023-08-14T22:59:58.980Z,65.68
2023-08-14T23:02:25.614Z,65.92
2023-08-14T23:04:52.239Z,65.94
2023-08-14T23:07:19.058Z,66.04
2023-08-14T23:09:45.890Z,66.02
2023-08-14T23:12:12.473Z,65.94
2023-08-14T23:14:39.108Z,65.91
2023-08-14T23:17:05.798Z,67.10
2023-08-14T23:19:32.279Z,67.59
2023-08-14T23:21:59.196Z,68.16
2023-08-14T23:24:25.819Z,67.58
2023-08-14T23:26:52.399Z,68.35
2023-08-14T23:29:18.890Z,68.46
2023-08-14T23:31:45.829Z,68.23
2023-08-14T23:34:12.358Z,66.93
2023-08-14T23:36:38.895Z,66.93
2023-08-14T23:39:05.913Z,66.80
2023-08-14T23:41:33.354Z,66.95
2023-08-14T23:43:59.864Z,66.69
2023-08-14T23:46:26.672Z,67.50
2023-08-14T23:48:53.216Z,66.89
2023-08-14T23:51:19.983Z,68.55
2023-08-14T23:53:46.513Z,67.32
2023-08-14T23:56:13.178Z,67.24
2023-08-14T23:58:39.645Z,66.88
